Agua Caliente Hot Springs, CA

3:19 PM PDT on August 01, 2015 (GMT -0700)
Pinezanita RV Park & Campgrounds | | Change Station
CLOSE
Current Station
Personal Weather Station
Location: Julian, CA
Elevation: 4698 ft
Nearby Weather Stations

Elev 4698 ft 33.04 °N, 116.56 °W | Updated 9 seconds ago

Clear
Clear
85.3 °F
Feels Like 84 °F
N
12.1
Wind Variable Wind from West
Gusts 14.0 mph

Today
High -- | Low -- °F
--% Chance of Precip.
Yesterday
High -- | Low -- °F
Precip. -- in
5:59 AM 7:45 PM
Full, 97% visible
Pressure 29.85 in
Visibility -9999.0 miles
Clouds
Heat Index 84 °F
Dew Point 54 °F
Humidity 34%
Rainfall 0.00 in
Snow Depth Not available.
UV Not available.
Pollen 4.40 out of 12
Air Quality Not available.
Flu Activity Not available.
METAR KCZZ 012152Z AUTO 22013G19KT 33/06 A2995 RMK AO1 SLP106 T03330056

More Conditions Fewer Conditions

Pressure 29.85 in
Visibility -9999.0 miles
Clouds
Heat Index 84 °F
Dew Point 54 °F
Humidity 34%
Rainfall 0.00 in
Snow Depth Not available.
UV Not available.
Pollen 4.40 out of 12
Air Quality Not available.
Flu Activity Not available.
METAR KCZZ 012152Z AUTO 22013G19KT 33/06 A2995 RMK AO1 SLP106 T03330056

More Conditions Fewer Conditions

10-Day Weather Forecast

×

Almanac

Astronomy

Aug. 01, 2015 Rise Set
Actual Time
Civil Twilight
Nautical Twilight
Astronomical Twilight
Moon
Length of Visible Light
Length of Day
Tomorrow will be .
, % of the Moon is Illuminated

Today's Extremes

State Highs State Lows

Community

WunderPhotos

Upload Photos

1,843,078 photos uploaded!

WunderBlogs® & News

Nearby

Air Quality

  Air Quality AQ Index Pollutant
Not available.

Snow Depth

Station Depth Elevation

Earthquake Activity

City Distance Mag. Time & Date
Minimum magnitude displayed is 2.5.

Coastal Water Temperatures

Place Temperature

Stations

Nearby Weather Stations

Station Location Temp. Windchill Dew Point Humidity Wind Precip. Elev Updated Type